sensor_id;sensor_type;location;lat;lon;timestamp;P1;durP1;ratioP1;P2;durP2;ratioP2
15645;SDS011;7922;43.622;1.476;2022-12-16T00:03:56;31.47;;;27.80;;
15645;SDS011;7922;43.622;1.476;2022-12-16T00:06:23;30.27;;;27.07;;
15645;SDS011;7922;43.622;1.476;2022-12-16T00:08:50;31.77;;;27.90;;
15645;SDS011;7922;43.622;1.476;2022-12-16T00:11:16;29.33;;;26.20;;
15645;SDS011;7922;43.622;1.476;2022-12-16T00:13:41;29.67;;;26.47;;
15645;SDS011;7922;43.622;1.476;2022-12-16T00:16:08;32.43;;;27.77;;
15645;SDS011;7922;43.622;1.476;2022-12-16T00:18:34;29.93;;;26.77;;
15645;SDS011;7922;43.622;1.476;2022-12-16T00:21:00;30.70;;;26.40;;
15645;SDS011;7922;43.622;1.476;2022-12-16T00:23:26;31.50;;;27.27;;
15645;SDS011;7922;43.622;1.476;2022-12-16T00:25:51;29.87;;;26.73;;
15645;SDS011;7922;43.622;1.476;2022-12-16T00:28:16;30.60;;;26.17;;
15645;SDS011;7922;43.622;1.476;2022-12-16T00:30:42;31.13;;;26.63;;
15645;SDS011;7922;43.622;1.476;2022-12-16T00:33:08;30.47;;;27.27;;
15645;SDS011;7922;43.622;1.476;2022-12-16T00:35:34;30.10;;;26.13;;
15645;SDS011;7922;43.622;1.476;2022-12-16T00:37:59;28.50;;;25.47;;
15645;SDS011;7922;43.622;1.476;2022-12-16T00:40:24;27.27;;;24.47;;
15645;SDS011;7922;43.622;1.476;2022-12-16T00:42:50;27.93;;;24.93;;
15645;SDS011;7922;43.622;1.476;2022-12-16T00:45:15;28.53;;;24.80;;
15645;SDS011;7922;43.622;1.476;2022-12-16T00:47:41;28.00;;;24.27;;
15645;SDS011;7922;43.622;1.476;2022-12-16T00:50:06;26.07;;;23.37;;
15645;SDS011;7922;43.622;1.476;2022-12-16T00:52:32;27.50;;;24.60;;
15645;SDS011;7922;43.622;1.476;2022-12-16T00:54:57;25.93;;;23.00;;
15645;SDS011;7922;43.622;1.476;2022-12-16T00:57:23;26.47;;;23.63;;
15645;SDS011;7922;43.622;1.476;2022-12-16T00:59:48;26.13;;;23.53;;
15645;SDS011;7922;43.622;1.476;2022-12-16T01:02:13;25.60;;;23.00;;
15645;SDS011;7922;43.622;1.476;2022-12-16T01:04:39;25.47;;;22.77;;
15645;SDS011;7922;43.622;1.476;2022-12-16T01:07:04;24.73;;;22.17;;
15645;SDS011;7922;43.622;1.476;2022-12-16T01:09:29;23.80;;;21.40;;
15645;SDS011;7922;43.622;1.476;2022-12-16T01:11:54;23.53;;;20.97;;
15645;SDS011;7922;43.622;1.476;2022-12-16T01:14:20;23.07;;;20.70;;
15645;SDS011;7922;43.622;1.476;2022-12-16T01:16:45;23.70;;;20.60;;
15645;SDS011;7922;43.622;1.476;2022-12-16T01:19:10;22.63;;;20.30;;
15645;SDS011;7922;43.622;1.476;2022-12-16T01:21:36;22.37;;;19.97;;
15645;SDS011;7922;43.622;1.476;2022-12-16T01:24:01;23.10;;;20.70;;
15645;SDS011;7922;43.622;1.476;2022-12-16T01:26:27;22.23;;;19.97;;
15645;SDS011;7922;43.622;1.476;2022-12-16T01:28:52;21.90;;;19.60;;
15645;SDS011;7922;43.622;1.476;2022-12-16T01:31:18;21.63;;;19.37;;
15645;SDS011;7922;43.622;1.476;2022-12-16T01:33:44;21.27;;;19.27;;
15645;SDS011;7922;43.622;1.476;2022-12-16T01:36:10;21.77;;;19.47;;
15645;SDS011;7922;43.622;1.476;2022-12-16T01:38:35;18.83;;;16.83;;
15645;SDS011;7922;43.622;1.476;2022-12-16T01:41:01;16.77;;;14.23;;
15645;SDS011;7922;43.622;1.476;2022-12-16T01:43:28;20.80;;;18.70;;
15645;SDS011;7922;43.622;1.476;2022-12-16T01:45:57;20.50;;;18.23;;
15645;SDS011;7922;43.622;1.476;2022-12-16T01:50:54;19.13;;;17.33;;
15645;SDS011;7922;43.622;1.476;2022-12-16T01:53:23;19.83;;;17.83;;
15645;SDS011;7922;43.622;1.476;2022-12-16T01:55:48;22.67;;;20.30;;
15645;SDS011;7922;43.622;1.476;2022-12-16T01:58:17;21.53;;;19.30;;
15645;SDS011;7922;43.622;1.476;2022-12-16T02:00:46;26.30;;;22.03;;
15645;SDS011;7922;43.622;1.476;2022-12-16T02:03:11;29.23;;;24.57;;
15645;SDS011;7922;43.622;1.476;2022-12-16T02:05:37;29.57;;;25.27;;
15645;SDS011;7922;43.622;1.476;2022-12-16T02:08:37;26.20;;;23.50;;
15645;SDS011;7922;43.622;1.476;2022-12-16T02:13:50;24.67;;;21.47;;
15645;SDS011;7922;43.622;1.476;2022-12-16T02:27:57;25.37;;;22.43;;
15645;SDS011;7922;43.622;1.476;2022-12-16T02:36:22;24.43;;;19.77;;
15645;SDS011;7922;43.622;1.476;2022-12-16T02:46:18;22.97;;;20.57;;
15645;SDS011;7922;43.622;1.476;2022-12-16T02:48:45;22.27;;;20.03;;
15645;SDS011;7922;43.622;1.476;2022-12-16T02:51:11;24.83;;;20.33;;
15645;SDS011;7922;43.622;1.476;2022-12-16T02:53:37;21.83;;;19.23;;
15645;SDS011;7922;43.622;1.476;2022-12-16T03:06:34;20.00;;;18.10;;
15645;SDS011;7922;43.622;1.476;2022-12-16T03:09:00;20.63;;;18.43;;
15645;SDS011;7922;43.622;1.476;2022-12-16T03:11:28;20.33;;;18.20;;
15645;SDS011;7922;43.622;1.476;2022-12-16T03:13:54;20.07;;;18.17;;
15645;SDS011;7922;43.622;1.476;2022-12-16T03:16:21;19.03;;;17.03;;
15645;SDS011;7922;43.622;1.476;2022-12-16T03:18:51;20.43;;;18.13;;
15645;SDS011;7922;43.622;1.476;2022-12-16T03:21:19;19.40;;;17.40;;
15645;SDS011;7922;43.622;1.476;2022-12-16T03:23:47;22.63;;;18.03;;
15645;SDS011;7922;43.622;1.476;2022-12-16T03:26:20;19.67;;;17.70;;
15645;SDS011;7922;43.622;1.476;2022-12-16T03:29:10;19.03;;;17.10;;
15645;SDS011;7922;43.622;1.476;2022-12-16T03:31:45;18.17;;;16.33;;
15645;SDS011;7922;43.622;1.476;2022-12-16T03:34:16;19.57;;;17.50;;
15645;SDS011;7922;43.622;1.476;2022-12-16T03:36:43;20.60;;;18.10;;
15645;SDS011;7922;43.622;1.476;2022-12-16T03:39:10;20.10;;;18.20;;
15645;SDS011;7922;43.622;1.476;2022-12-16T03:41:36;20.73;;;18.73;;
15645;SDS011;7922;43.622;1.476;2022-12-16T03:44:02;19.57;;;17.47;;
15645;SDS011;7922;43.622;1.476;2022-12-16T03:46:27;20.97;;;17.87;;
15645;SDS011;7922;43.622;1.476;2022-12-16T03:48:53;21.30;;;19.10;;
15645;SDS011;7922;43.622;1.476;2022-12-16T03:51:18;21.00;;;18.83;;
15645;SDS011;7922;43.622;1.476;2022-12-16T03:53:44;20.73;;;18.53;;
15645;SDS011;7922;43.622;1.476;2022-12-16T03:56:10;20.30;;;18.20;;
15645;SDS011;7922;43.622;1.476;2022-12-16T03:58:35;20.10;;;18.20;;
15645;SDS011;7922;43.622;1.476;2022-12-16T04:01:02;21.50;;;19.30;;
15645;SDS011;7922;43.622;1.476;2022-12-16T04:03:27;20.37;;;18.40;;
15645;SDS011;7922;43.622;1.476;2022-12-16T04:05:52;20.53;;;18.43;;
15645;SDS011;7922;43.622;1.476;2022-12-16T04:08:17;24.77;;;20.27;;
15645;SDS011;7922;43.622;1.476;2022-12-16T04:10:43;20.63;;;18.50;;
15645;SDS011;7922;43.622;1.476;2022-12-16T04:13:08;20.17;;;18.10;;
15645;SDS011;7922;43.622;1.476;2022-12-16T04:15:34;20.83;;;18.83;;
15645;SDS011;7922;43.622;1.476;2022-12-16T04:17:59;20.80;;;18.57;;
15645;SDS011;7922;43.622;1.476;2022-12-16T04:20:27;21.10;;;18.90;;
15645;SDS011;7922;43.622;1.476;2022-12-16T04:22:53;21.93;;;19.57;;
15645;SDS011;7922;43.622;1.476;2022-12-16T04:25:37;23.17;;;19.40;;
15645;SDS011;7922;43.622;1.476;2022-12-16T04:28:02;22.03;;;19.70;;
15645;SDS011;7922;43.622;1.476;2022-12-16T04:30:28;21.40;;;19.17;;
15645;SDS011;7922;43.622;1.476;2022-12-16T04:32:56;20.67;;;18.60;;
15645;SDS011;7922;43.622;1.476;2022-12-16T04:35:23;21.53;;;19.23;;
15645;SDS011;7922;43.622;1.476;2022-12-16T04:37:49;20.87;;;18.67;;
15645;SDS011;7922;43.622;1.476;2022-12-16T04:40:14;21.07;;;18.87;;
15645;SDS011;7922;43.622;1.476;2022-12-16T04:42:39;21.00;;;18.77;;
15645;SDS011;7922;43.622;1.476;2022-12-16T04:45:05;20.17;;;18.17;;
15645;SDS011;7922;43.622;1.476;2022-12-16T04:47:30;21.30;;;19.10;;
15645;SDS011;7922;43.622;1.476;2022-12-16T04:49:55;21.70;;;19.17;;
15645;SDS011;7922;43.622;1.476;2022-12-16T04:52:21;20.60;;;18.50;;
15645;SDS011;7922;43.622;1.476;2022-12-16T04:54:46;21.20;;;18.93;;
15645;SDS011;7922;43.622;1.476;2022-12-16T04:57:11;21.57;;;19.47;;
15645;SDS011;7922;43.622;1.476;2022-12-16T04:59:37;20.57;;;18.47;;
15645;SDS011;7922;43.622;1.476;2022-12-16T05:02:02;21.37;;;19.27;;
15645;SDS011;7922;43.622;1.476;2022-12-16T05:04:27;20.33;;;18.30;;
15645;SDS011;7922;43.622;1.476;2022-12-16T05:06:52;19.60;;;17.60;;
15645;SDS011;7922;43.622;1.476;2022-12-16T05:09:18;21.63;;;19.43;;
15645;SDS011;7922;43.622;1.476;2022-12-16T05:11:43;20.57;;;18.57;;
15645;SDS011;7922;43.622;1.476;2022-12-16T05:14:08;20.80;;;18.70;;
15645;SDS011;7922;43.622;1.476;2022-12-16T05:16:34;20.07;;;18.17;;
15645;SDS011;7922;43.622;1.476;2022-12-16T05:18:59;19.77;;;17.67;;
15645;SDS011;7922;43.622;1.476;2022-12-16T05:21:24;20.43;;;18.33;;
15645;SDS011;7922;43.622;1.476;2022-12-16T05:23:49;20.47;;;18.43;;
15645;SDS011;7922;43.622;1.476;2022-12-16T05:26:15;19.57;;;17.77;;
15645;SDS011;7922;43.622;1.476;2022-12-16T05:28:40;20.00;;;17.50;;
15645;SDS011;7922;43.622;1.476;2022-12-16T05:31:05;20.80;;;18.80;;
15645;SDS011;7922;43.622;1.476;2022-12-16T05:33:30;21.13;;;19.03;;
15645;SDS011;7922;43.622;1.476;2022-12-16T05:35:56;20.27;;;18.17;;
15645;SDS011;7922;43.622;1.476;2022-12-16T05:38:21;20.50;;;18.47;;
15645;SDS011;7922;43.622;1.476;2022-12-16T05:40:46;21.17;;;18.87;;
15645;SDS011;7922;43.622;1.476;2022-12-16T05:43:11;21.40;;;19.00;;
15645;SDS011;7922;43.622;1.476;2022-12-16T05:45:38;19.77;;;17.87;;
15645;SDS011;7922;43.622;1.476;2022-12-16T05:48:03;21.13;;;19.03;;
15645;SDS011;7922;43.622;1.476;2022-12-16T05:50:29;21.60;;;19.40;;
15645;SDS011;7922;43.622;1.476;2022-12-16T05:52:54;21.10;;;18.63;;
15645;SDS011;7922;43.622;1.476;2022-12-16T05:55:20;21.50;;;19.40;;
15645;SDS011;7922;43.622;1.476;2022-12-16T05:57:51;21.47;;;19.17;;
15645;SDS011;7922;43.622;1.476;2022-12-16T06:00:17;21.67;;;19.30;;
15645;SDS011;7922;43.622;1.476;2022-12-16T06:02:42;20.80;;;18.60;;
15645;SDS011;7922;43.622;1.476;2022-12-16T06:05:07;20.93;;;18.80;;
15645;SDS011;7922;43.622;1.476;2022-12-16T06:07:33;21.30;;;19.20;;
15645;SDS011;7922;43.622;1.476;2022-12-16T06:09:58;20.70;;;18.50;;
15645;SDS011;7922;43.622;1.476;2022-12-16T06:12:23;21.10;;;18.90;;
15645;SDS011;7922;43.622;1.476;2022-12-16T06:14:48;21.23;;;18.97;;
15645;SDS011;7922;43.622;1.476;2022-12-16T06:17:14;21.53;;;19.33;;
15645;SDS011;7922;43.622;1.476;2022-12-16T06:19:39;22.07;;;19.90;;
15645;SDS011;7922;43.622;1.476;2022-12-16T06:22:04;20.17;;;18.13;;
15645;SDS011;7922;43.622;1.476;2022-12-16T06:24:30;20.60;;;18.60;;
15645;SDS011;7922;43.622;1.476;2022-12-16T06:26:55;19.67;;;17.73;;
15645;SDS011;7922;43.622;1.476;2022-12-16T06:29:20;20.93;;;18.77;;
15645;SDS011;7922;43.622;1.476;2022-12-16T06:31:45;20.13;;;18.03;;
15645;SDS011;7922;43.622;1.476;2022-12-16T06:34:11;20.57;;;18.47;;
15645;SDS011;7922;43.622;1.476;2022-12-16T06:36:36;19.53;;;17.47;;
15645;SDS011;7922;43.622;1.476;2022-12-16T06:39:01;19.70;;;17.60;;
15645;SDS011;7922;43.622;1.476;2022-12-16T06:41:27;19.97;;;17.87;;
15645;SDS011;7922;43.622;1.476;2022-12-16T06:43:52;19.27;;;17.27;;
15645;SDS011;7922;43.622;1.476;2022-12-16T06:46:17;19.07;;;17.07;;
15645;SDS011;7922;43.622;1.476;2022-12-16T06:48:42;17.27;;;15.53;;
15645;SDS011;7922;43.622;1.476;2022-12-16T06:51:08;18.07;;;16.27;;
15645;SDS011;7922;43.622;1.476;2022-12-16T06:53:33;18.10;;;16.03;;
15645;SDS011;7922;43.622;1.476;2022-12-16T06:55:58;17.93;;;16.17;;
15645;SDS011;7922;43.622;1.476;2022-12-16T06:58:24;19.47;;;17.33;;
15645;SDS011;7922;43.622;1.476;2022-12-16T07:00:49;20.77;;;18.57;;
15645;SDS011;7922;43.622;1.476;2022-12-16T07:03:14;21.47;;;19.27;;
15645;SDS011;7922;43.622;1.476;2022-12-16T07:05:40;22.40;;;20.10;;
15645;SDS011;7922;43.622;1.476;2022-12-16T07:08:05;21.00;;;18.93;;
15645;SDS011;7922;43.622;1.476;2022-12-16T07:10:30;19.27;;;17.30;;
15645;SDS011;7922;43.622;1.476;2022-12-16T07:12:56;18.73;;;16.47;;
15645;SDS011;7922;43.622;1.476;2022-12-16T07:15:23;17.97;;;16.07;;
15645;SDS011;7922;43.622;1.476;2022-12-16T07:17:48;18.40;;;16.13;;
15645;SDS011;7922;43.622;1.476;2022-12-16T07:20:14;20.17;;;17.20;;
15645;SDS011;7922;43.622;1.476;2022-12-16T07:22:42;19.57;;;17.47;;
15645;SDS011;7922;43.622;1.476;2022-12-16T07:25:08;21.97;;;17.37;;
15645;SDS011;7922;43.622;1.476;2022-12-16T07:27:33;21.47;;;18.13;;
15645;SDS011;7922;43.622;1.476;2022-12-16T07:29:59;19.60;;;16.40;;
15645;SDS011;7922;43.622;1.476;2022-12-16T07:32:24;19.90;;;16.93;;
15645;SDS011;7922;43.622;1.476;2022-12-16T07:34:49;16.97;;;15.17;;
15645;SDS011;7922;43.622;1.476;2022-12-16T07:37:14;17.93;;;15.33;;
15645;SDS011;7922;43.622;1.476;2022-12-16T07:39:40;16.53;;;14.73;;
15645;SDS011;7922;43.622;1.476;2022-12-16T07:42:05;17.00;;;15.20;;
15645;SDS011;7922;43.622;1.476;2022-12-16T07:44:30;18.93;;;15.07;;
15645;SDS011;7922;43.622;1.476;2022-12-16T07:46:56;18.63;;;16.63;;
15645;SDS011;7922;43.622;1.476;2022-12-16T07:49:21;18.33;;;16.40;;
15645;SDS011;7922;43.622;1.476;2022-12-16T07:51:46;17.73;;;15.83;;
15645;SDS011;7922;43.622;1.476;2022-12-16T07:54:11;17.20;;;15.07;;
15645;SDS011;7922;43.622;1.476;2022-12-16T07:56:37;19.20;;;17.20;;
15645;SDS011;7922;43.622;1.476;2022-12-16T07:59:02;18.03;;;16.23;;
15645;SDS011;7922;43.622;1.476;2022-12-16T08:01:27;18.30;;;15.80;;
15645;SDS011;7922;43.622;1.476;2022-12-16T08:03:53;16.60;;;14.90;;
15645;SDS011;7922;43.622;1.476;2022-12-16T08:06:18;16.20;;;14.57;;
15645;SDS011;7922;43.622;1.476;2022-12-16T08:08:43;15.27;;;13.67;;
15645;SDS011;7922;43.622;1.476;2022-12-16T08:11:08;14.83;;;13.33;;
15645;SDS011;7922;43.622;1.476;2022-12-16T08:13:34;15.23;;;13.67;;
15645;SDS011;7922;43.622;1.476;2022-12-16T08:15:59;16.37;;;13.23;;
15645;SDS011;7922;43.622;1.476;2022-12-16T08:18:24;14.30;;;12.43;;
15645;SDS011;7922;43.622;1.476;2022-12-16T08:20:49;19.17;;;17.27;;
15645;SDS011;7922;43.622;1.476;2022-12-16T08:23:15;18.80;;;17.00;;
15645;SDS011;7922;43.622;1.476;2022-12-16T08:25:40;12.77;;;11.47;;
15645;SDS011;7922;43.622;1.476;2022-12-16T08:28:05;12.33;;;11.03;;
15645;SDS011;7922;43.622;1.476;2022-12-16T08:30:30;13.70;;;11.33;;
15645;SDS011;7922;43.622;1.476;2022-12-16T08:32:56;12.47;;;11.27;;
15645;SDS011;7922;43.622;1.476;2022-12-16T08:35:21;14.53;;;13.13;;
15645;SDS011;7922;43.622;1.476;2022-12-16T08:37:46;13.80;;;11.93;;
15645;SDS011;7922;43.622;1.476;2022-12-16T08:40:12;12.03;;;10.50;;
15645;SDS011;7922;43.622;1.476;2022-12-16T08:42:37;11.60;;;9.93;;
15645;SDS011;7922;43.622;1.476;2022-12-16T08:45:03;10.20;;;9.00;;
15645;SDS011;7922;43.622;1.476;2022-12-16T08:47:28;12.93;;;7.33;;
15645;SDS011;7922;43.622;1.476;2022-12-16T08:49:53;12.50;;;7.70;;
15645;SDS011;7922;43.622;1.476;2022-12-16T08:52:19;8.57;;;7.73;;
15645;SDS011;7922;43.622;1.476;2022-12-16T08:54:44;11.27;;;8.50;;
15645;SDS011;7922;43.622;1.476;2022-12-16T08:57:09;9.20;;;8.30;;
15645;SDS011;7922;43.622;1.476;2022-12-16T08:59:34;9.27;;;8.30;;
15645;SDS011;7922;43.622;1.476;2022-12-16T09:02:00;10.03;;;7.53;;
15645;SDS011;7922;43.622;1.476;2022-12-16T09:04:25;10.40;;;7.90;;
15645;SDS011;7922;43.622;1.476;2022-12-16T09:06:50;9.97;;;7.70;;
15645;SDS011;7922;43.622;1.476;2022-12-16T09:09:16;10.17;;;7.60;;
15645;SDS011;7922;43.622;1.476;2022-12-16T09:11:41;8.97;;;6.20;;
15645;SDS011;7922;43.622;1.476;2022-12-16T09:14:06;8.57;;;5.87;;
15645;SDS011;7922;43.622;1.476;2022-12-16T09:16:31;8.53;;;6.13;;
15645;SDS011;7922;43.622;1.476;2022-12-16T09:18:57;5.93;;;4.90;;
15645;SDS011;7922;43.622;1.476;2022-12-16T09:21:22;5.27;;;4.70;;
15645;SDS011;7922;43.622;1.476;2022-12-16T09:23:47;7.33;;;5.27;;
15645;SDS011;7922;43.622;1.476;2022-12-16T09:26:13;6.43;;;5.33;;
15645;SDS011;7922;43.622;1.476;2022-12-16T09:28:38;8.60;;;5.30;;
15645;SDS011;7922;43.622;1.476;2022-12-16T09:31:03;6.07;;;5.47;;
15645;SDS011;7922;43.622;1.476;2022-12-16T09:33:28;6.37;;;4.87;;
15645;SDS011;7922;43.622;1.476;2022-12-16T09:35:54;5.63;;;5.10;;
15645;SDS011;7922;43.622;1.476;2022-12-16T09:38:19;7.10;;;5.07;;
15645;SDS011;7922;43.622;1.476;2022-12-16T09:40:44;6.57;;;5.40;;
15645;SDS011;7922;43.622;1.476;2022-12-16T09:46:02;6.90;;;5.20;;
15645;SDS011;7922;43.622;1.476;2022-12-16T09:51:25;7.73;;;5.33;;
15645;SDS011;7922;43.622;1.476;2022-12-16T09:53:52;5.30;;;4.80;;
15645;SDS011;7922;43.622;1.476;2022-12-16T09:56:20;5.50;;;4.50;;
15645;SDS011;7922;43.622;1.476;2022-12-16T09:58:52;8.47;;;4.90;;
15645;SDS011;7922;43.622;1.476;2022-12-16T10:01:21;5.67;;;5.17;;
15645;SDS011;7922;43.622;1.476;2022-12-16T10:03:46;5.63;;;4.63;;
15645;SDS011;7922;43.622;1.476;2022-12-16T10:08:54;5.00;;;4.50;;
15645;SDS011;7922;43.622;1.476;2022-12-16T10:11:36;6.00;;;4.33;;
15645;SDS011;7922;43.622;1.476;2022-12-16T10:14:18;5.83;;;5.23;;
15645;SDS011;7922;43.622;1.476;2022-12-16T10:22:20;5.03;;;4.57;;
15645;SDS011;7922;43.622;1.476;2022-12-16T10:27:44;7.03;;;4.83;;
15645;SDS011;7922;43.622;1.476;2022-12-16T10:30:11;7.23;;;5.00;;
15645;SDS011;7922;43.622;1.476;2022-12-16T10:32:49;6.13;;;4.83;;
15645;SDS011;7922;43.622;1.476;2022-12-16T10:35:20;6.97;;;5.20;;
15645;SDS011;7922;43.622;1.476;2022-12-16T10:37:46;6.77;;;5.60;;
15645;SDS011;7922;43.622;1.476;2022-12-16T10:40:13;7.73;;;5.10;;
15645;SDS011;7922;43.622;1.476;2022-12-16T10:42:43;5.73;;;5.13;;
15645;SDS011;7922;43.622;1.476;2022-12-16T10:45:26;5.20;;;4.60;;
15645;SDS011;7922;43.622;1.476;2022-12-16T10:47:53;6.60;;;5.20;;
15645;SDS011;7922;43.622;1.476;2022-12-16T10:50:18;6.33;;;5.73;;
15645;SDS011;7922;43.622;1.476;2022-12-16T10:52:54;6.90;;;6.20;;
15645;SDS011;7922;43.622;1.476;2022-12-16T10:58:27;6.90;;;6.23;;
15645;SDS011;7922;43.622;1.476;2022-12-16T11:01:21;6.67;;;6.17;;
15645;SDS011;7922;43.622;1.476;2022-12-16T11:03:48;6.93;;;6.27;;
15645;SDS011;7922;43.622;1.476;2022-12-16T11:08:50;9.27;;;7.40;;
15645;SDS011;7922;43.622;1.476;2022-12-16T11:11:20;7.70;;;7.00;;
15645;SDS011;7922;43.622;1.476;2022-12-16T11:13:46;6.73;;;6.20;;
15645;SDS011;7922;43.622;1.476;2022-12-16T11:16:13;8.00;;;7.30;;
15645;SDS011;7922;43.622;1.476;2022-12-16T11:18:49;5.30;;;4.80;;
15645;SDS011;7922;43.622;1.476;2022-12-16T11:21:15;6.97;;;5.20;;
15645;SDS011;7922;43.622;1.476;2022-12-16T11:23:42;5.57;;;5.07;;
15645;SDS011;7922;43.622;1.476;2022-12-16T11:28:39;6.43;;;4.50;;
15645;SDS011;7922;43.622;1.476;2022-12-16T11:31:06;5.70;;;5.07;;
15645;SDS011;7922;43.622;1.476;2022-12-16T11:33:35;5.60;;;5.00;;
15645;SDS011;7922;43.622;1.476;2022-12-16T11:36:05;5.30;;;4.80;;
15645;SDS011;7922;43.622;1.476;2022-12-16T11:41:16;5.07;;;4.63;;
15645;SDS011;7922;43.622;1.476;2022-12-16T11:43:46;5.20;;;4.70;;
15645;SDS011;7922;43.622;1.476;2022-12-16T11:46:24;4.80;;;4.30;;
15645;SDS011;7922;43.622;1.476;2022-12-16T11:48:51;4.97;;;4.50;;
15645;SDS011;7922;43.622;1.476;2022-12-16T11:51:22;4.63;;;4.20;;
15645;SDS011;7922;43.622;1.476;2022-12-16T11:53:53;4.13;;;3.77;;
15645;SDS011;7922;43.622;1.476;2022-12-16T11:56:24;4.67;;;4.17;;
15645;SDS011;7922;43.622;1.476;2022-12-16T11:58:51;4.93;;;4.03;;
15645;SDS011;7922;43.622;1.476;2022-12-16T12:01:36;4.73;;;4.33;;
15645;SDS011;7922;43.622;1.476;2022-12-16T12:04:05;4.73;;;4.33;;
15645;SDS011;7922;43.622;1.476;2022-12-16T12:06:31;4.53;;;4.13;;
15645;SDS011;7922;43.622;1.476;2022-12-16T12:09:21;5.60;;;4.97;;
15645;SDS011;7922;43.622;1.476;2022-12-16T12:11:49;6.40;;;5.90;;
15645;SDS011;7922;43.622;1.476;2022-12-16T12:14:24;5.80;;;5.30;;
15645;SDS011;7922;43.622;1.476;2022-12-16T12:17:05;9.37;;;8.47;;
15645;SDS011;7922;43.622;1.476;2022-12-16T12:24:56;5.23;;;4.83;;
15645;SDS011;7922;43.622;1.476;2022-12-16T12:30:23;4.87;;;4.40;;
15645;SDS011;7922;43.622;1.476;2022-12-16T12:37:57;6.30;;;5.60;;
15645;SDS011;7922;43.622;1.476;2022-12-16T12:43:29;7.43;;;6.33;;
15645;SDS011;7922;43.622;1.476;2022-12-16T12:46:05;6.87;;;6.27;;
15645;SDS011;7922;43.622;1.476;2022-12-16T12:48:45;6.23;;;5.63;;
15645;SDS011;7922;43.622;1.476;2022-12-16T12:53:52;7.30;;;6.60;;
15645;SDS011;7922;43.622;1.476;2022-12-16T12:58:58;8.13;;;7.43;;
15645;SDS011;7922;43.622;1.476;2022-12-16T13:01:26;8.17;;;7.47;;
15645;SDS011;7922;43.622;1.476;2022-12-16T13:06:19;8.77;;;7.97;;
15645;SDS011;7922;43.622;1.476;2022-12-16T13:11:13;9.53;;;8.40;;
15645;SDS011;7922;43.622;1.476;2022-12-16T13:13:38;10.20;;;9.20;;
15645;SDS011;7922;43.622;1.476;2022-12-16T13:16:08;9.47;;;8.57;;
15645;SDS011;7922;43.622;1.476;2022-12-16T13:18:35;11.13;;;9.40;;
15645;SDS011;7922;43.622;1.476;2022-12-16T13:21:00;10.30;;;9.30;;
15645;SDS011;7922;43.622;1.476;2022-12-16T13:23:32;11.43;;;9.37;;
15645;SDS011;7922;43.622;1.476;2022-12-16T13:26:03;8.90;;;8.20;;
15645;SDS011;7922;43.622;1.476;2022-12-16T13:28:32;10.73;;;9.60;;
15645;SDS011;7922;43.622;1.476;2022-12-16T13:31:01;9.07;;;8.20;;
15645;SDS011;7922;43.622;1.476;2022-12-16T13:33:29;8.77;;;7.97;;
15645;SDS011;7922;43.622;1.476;2022-12-16T13:35:55;9.07;;;8.27;;
15645;SDS011;7922;43.622;1.476;2022-12-16T13:38:22;9.50;;;8.60;;
15645;SDS011;7922;43.622;1.476;2022-12-16T13:46:14;7.57;;;6.77;;
15645;SDS011;7922;43.622;1.476;2022-12-16T13:48:40;6.83;;;6.23;;
15645;SDS011;7922;43.622;1.476;2022-12-16T13:51:06;6.97;;;6.37;;
15645;SDS011;7922;43.622;1.476;2022-12-16T13:53:33;6.53;;;5.93;;
15645;SDS011;7922;43.622;1.476;2022-12-16T13:56:05;7.00;;;6.40;;
15645;SDS011;7922;43.622;1.476;2022-12-16T13:58:35;6.60;;;6.00;;
15645;SDS011;7922;43.622;1.476;2022-12-16T14:01:04;7.07;;;6.40;;
15645;SDS011;7922;43.622;1.476;2022-12-16T14:03:43;9.17;;;7.03;;
15645;SDS011;7922;43.622;1.476;2022-12-16T14:06:14;7.93;;;7.23;;
15645;SDS011;7922;43.622;1.476;2022-12-16T14:08:43;8.60;;;7.67;;
15645;SDS011;7922;43.622;1.476;2022-12-16T14:11:18;8.40;;;7.57;;
15645;SDS011;7922;43.622;1.476;2022-12-16T14:16:36;9.20;;;7.70;;
15645;SDS011;7922;43.622;1.476;2022-12-16T14:24:24;8.87;;;7.97;;
15645;SDS011;7922;43.622;1.476;2022-12-16T14:26:51;8.87;;;8.00;;
15645;SDS011;7922;43.622;1.476;2022-12-16T14:29:29;9.40;;;8.50;;
15645;SDS011;7922;43.622;1.476;2022-12-16T14:31:55;8.87;;;8.07;;
15645;SDS011;7922;43.622;1.476;2022-12-16T14:34:21;9.80;;;8.80;;
15645;SDS011;7922;43.622;1.476;2022-12-16T14:36:57;9.00;;;8.10;;
15645;SDS011;7922;43.622;1.476;2022-12-16T14:39:23;9.73;;;7.97;;
15645;SDS011;7922;43.622;1.476;2022-12-16T14:41:52;8.90;;;7.93;;
15645;SDS011;7922;43.622;1.476;2022-12-16T14:44:18;8.90;;;7.93;;
15645;SDS011;7922;43.622;1.476;2022-12-16T14:46:49;10.07;;;9.07;;
15645;SDS011;7922;43.622;1.476;2022-12-16T14:49:22;9.87;;;8.87;;
15645;SDS011;7922;43.622;1.476;2022-12-16T14:51:49;11.33;;;9.50;;
15645;SDS011;7922;43.622;1.476;2022-12-16T14:56:59;13.33;;;11.33;;
15645;SDS011;7922;43.622;1.476;2022-12-16T14:59:24;12.97;;;11.13;;
15645;SDS011;7922;43.622;1.476;2022-12-16T15:01:50;12.30;;;11.10;;
15645;SDS011;7922;43.622;1.476;2022-12-16T15:04:17;12.57;;;10.20;;
15645;SDS011;7922;43.622;1.476;2022-12-16T15:06:44;11.17;;;9.97;;
15645;SDS011;7922;43.622;1.476;2022-12-16T15:09:14;9.80;;;8.80;;
15645;SDS011;7922;43.622;1.476;2022-12-16T15:11:43;12.37;;;9.30;;
15645;SDS011;7922;43.622;1.476;2022-12-16T15:14:13;11.83;;;10.57;;
15645;SDS011;7922;43.622;1.476;2022-12-16T15:16:42;14.20;;;12.43;;
15645;SDS011;7922;43.622;1.476;2022-12-16T15:19:08;15.77;;;12.60;;
15645;SDS011;7922;43.622;1.476;2022-12-16T15:21:34;16.23;;;14.47;;
15645;SDS011;7922;43.622;1.476;2022-12-16T15:23:59;16.97;;;15.00;;
15645;SDS011;7922;43.622;1.476;2022-12-16T15:26:26;17.70;;;15.80;;
15645;SDS011;7922;43.622;1.476;2022-12-16T15:28:53;19.03;;;16.90;;
15645;SDS011;7922;43.622;1.476;2022-12-16T15:31:29;17.43;;;15.23;;
15645;SDS011;7922;43.622;1.476;2022-12-16T15:34:44;17.30;;;15.50;;
15645;SDS011;7922;43.622;1.476;2022-12-16T15:36:49;16.43;;;14.73;;
15645;SDS011;7922;43.622;1.476;2022-12-16T15:41:50;17.60;;;14.73;;
15645;SDS011;7922;43.622;1.476;2022-12-16T15:44:25;16.07;;;14.03;;
15645;SDS011;7922;43.622;1.476;2022-12-16T15:46:51;15.43;;;13.67;;
15645;SDS011;7922;43.622;1.476;2022-12-16T15:49:50;16.87;;;13.73;;
15645;SDS011;7922;43.622;1.476;2022-12-16T15:57:53;18.13;;;16.17;;
15645;SDS011;7922;43.622;1.476;2022-12-16T16:00:23;21.00;;;17.37;;
15645;SDS011;7922;43.622;1.476;2022-12-16T16:02:49;21.10;;;18.10;;
15645;SDS011;7922;43.622;1.476;2022-12-16T16:05:15;26.50;;;23.00;;
15645;SDS011;7922;43.622;1.476;2022-12-16T16:07:42;23.63;;;19.33;;
15645;SDS011;7922;43.622;1.476;2022-12-16T16:10:19;17.70;;;15.90;;
15645;SDS011;7922;43.622;1.476;2022-12-16T16:12:46;18.13;;;16.20;;
15645;SDS011;7922;43.622;1.476;2022-12-16T16:15:12;16.23;;;14.63;;
15645;SDS011;7922;43.622;1.476;2022-12-16T16:17:38;16.47;;;14.33;;
15645;SDS011;7922;43.622;1.476;2022-12-16T16:20:03;16.77;;;14.83;;
15645;SDS011;7922;43.622;1.476;2022-12-16T16:22:29;14.87;;;12.93;;
15645;SDS011;7922;43.622;1.476;2022-12-16T16:24:55;15.70;;;13.53;;
15645;SDS011;7922;43.622;1.476;2022-12-16T16:27:20;14.60;;;13.10;;
15645;SDS011;7922;43.622;1.476;2022-12-16T16:29:45;18.90;;;15.80;;
15645;SDS011;7922;43.622;1.476;2022-12-16T16:32:11;15.00;;;12.73;;
15645;SDS011;7922;43.622;1.476;2022-12-16T16:34:36;16.13;;;12.77;;
15645;SDS011;7922;43.622;1.476;2022-12-16T16:37:01;16.93;;;14.67;;
15645;SDS011;7922;43.622;1.476;2022-12-16T16:39:26;15.73;;;14.07;;
15645;SDS011;7922;43.622;1.476;2022-12-16T16:41:53;16.53;;;14.87;;
15645;SDS011;7922;43.622;1.476;2022-12-16T16:44:19;16.57;;;12.60;;
15645;SDS011;7922;43.622;1.476;2022-12-16T16:46:44;19.23;;;14.70;;